Time;durP1;ratioP1;P1;durP2;ratioP2;P2;SDS_P1;SDS_P2;PMS_P1;PMS_P2;Temp;Humidity;BMP_temperature;BMP_pressure;BME280_temperature;BME280_humidity;BME280_pressure;Samples;Min_cycle;Max_cycle;Signal;HPM_P1;HPM_P2
2024/01/10 00:04:18;;;;;;;17.50;10.20;;;0.10;99.90;;;;;;10409122;28;20223;-81
2024/01/10 00:09:41;;;;;;;17.63;10.37;;;0.10;1.00;;;;;;10396234;28;20199;-80
2024/01/10 00:15:04;;;;;;;16.87;9.27;;;0.20;1.00;;;;;;10396359;28;20282;-80
2024/01/10 00:20:25;;;;;;;12.90;8.57;;;0.20;1.00;;;;;;10385377;28;20234;-81
2024/01/10 00:25:47;;;;;;;13.07;8.17;;;0.20;1.00;;;;;;10396290;28;20293;-80
2024/01/10 00:31:08;;;;;;;14.30;9.03;;;0.10;1.00;;;;;;10381500;28;20459;-80
2024/01/10 00:36:30;;;;;;;15.27;9.53;;;0.10;99.90;;;;;;10395789;28;20527;-83
2024/01/10 00:41:51;;;;;;;15.90;10.63;;;0.10;99.90;;;;;;10445459;28;20203;-80
2024/01/10 00:47:14;;;;;;;13.63;9.03;;;0.20;99.90;;;;;;10422089;28;20207;-82
2024/01/10 00:52:36;;;;;;;16.57;10.97;;;0.20;99.90;;;;;;10411236;28;20264;-81
2024/01/10 00:57:57;;;;;;;16.40;10.20;;;0.20;99.90;;;;;;10422078;28;20225;-80
2024/01/10 01:03:18;;;;;;;14.20;10.27;;;0.20;99.90;;;;;;10401827;28;20228;-81
2024/01/10 01:08:40;;;;;;;18.77;11.47;;;0.30;99.90;;;;;;10394734;28;20199;-82
2024/01/10 01:14:01;;;;;;;16.80;10.27;;;0.40;99.90;;;;;;10408662;28;20237;-81
2024/01/10 01:19:22;;;;;;;17.13;10.07;;;0.40;92.60;;;;;;10397691;28;20516;-80
2024/01/10 01:24:44;;;;;;;17.97;11.30;;;0.40;54.90;;;;;;10394265;28;20230;-81
2024/01/10 01:30:06;;;;;;;18.37;10.77;;;0.40;99.90;;;;;;10394351;28;20202;-82
2024/01/10 01:35:27;;;;;;;17.57;11.23;;;0.40;99.90;;;;;;10394521;28;20223;-81
2024/01/10 01:40:49;;;;;;;21.13;12.30;;;0.40;97.40;;;;;;10435843;28;20532;-81
2024/01/10 01:46:10;;;;;;;14.20;9.40;;;0.40;99.90;;;;;;10434825;28;20228;-82
2024/01/10 01:51:33;;;;;;;10.87;6.77;;;0.40;16.00;;;;;;10394976;28;20431;-81
2024/01/10 01:56:55;;;;;;;12.77;7.93;;;0.40;1.00;;;;;;10421146;28;20234;-81
2024/01/10 02:02:17;;;;;;;13.50;8.07;;;0.40;99.90;;;;;;10438750;28;20202;-80
2024/01/10 02:07:39;;;;;;;13.93;7.50;;;0.50;99.90;;;;;;10415327;28;20276;-80
2024/01/10 02:13:01;;;;;;;13.70;9.03;;;0.60;1.00;;;;;;10403175;28;20248;-81
2024/01/10 02:18:23;;;;;;;15.43;7.93;;;0.50;1.00;;;;;;10406253;28;20433;-81
2024/01/10 02:23:44;;;;;;;15.03;8.93;;;0.50;1.00;;;;;;10400527;28;20254;-79
2024/01/10 02:29:05;;;;;;;10.33;7.33;;;0.50;1.00;;;;;;10400113;28;20203;-81
2024/01/10 02:34:27;;;;;;;14.27;9.37;;;0.50;1.00;;;;;;10414375;28;20433;-81
2024/01/10 02:39:48;;;;;;;13.03;8.57;;;0.50;99.90;;;;;;10405224;28;20195;-80
2024/01/10 02:45:09;;;;;;;13.20;8.77;;;0.50;99.90;;;;;;10399455;28;20580;-82
2024/01/10 02:50:31;;;;;;;14.93;9.17;;;0.50;99.90;;;;;;10404235;28;20200;-81
2024/01/10 02:55:52;;;;;;;9.97;7.07;;;0.50;99.90;;;;;;10384889;28;20285;-81
2024/01/10 03:01:15;;;;;;;8.63;6.73;;;0.50;99.90;;;;;;10399049;28;20206;-84
2024/01/10 03:06:37;;;;;;;8.43;6.10;;;0.60;99.90;;;;;;10394624;28;20456;-87
2024/01/10 03:11:59;;;;;;;8.43;5.63;;;0.60;1.00;;;;;;10385117;28;20204;-84
2024/01/10 03:17:20;;;;;;;8.87;6.93;;;0.60;99.90;;;;;;10399523;28;20198;-81
2024/01/10 03:22:41;;;;;;;10.07;6.97;;;0.50;99.90;;;;;;10399529;28;20237;-82
2024/01/10 03:28:03;;;;;;;13.97;7.70;;;0.50;99.90;;;;;;10397859;28;20254;-81
2024/01/10 03:33:24;;;;;;;10.27;7.23;;;0.60;60.20;;;;;;10400678;28;20203;-81
2024/01/10 03:38:45;;;;;;;12.00;7.93;;;0.60;1.00;;;;;;10413894;28;20410;-81
2024/01/10 03:44:06;;;;;;;14.67;9.00;;;0.60;1.00;;;;;;10411701;28;20551;-80
2024/01/10 03:49:28;;;;;;;11.43;8.83;;;0.50;1.00;;;;;;10397423;28;20557;-84
2024/01/10 03:54:49;;;;;;;16.17;11.60;;;0.50;1.00;;;;;;10430930;28;20305;-84
2024/01/10 04:00:11;;;;;;;18.33;11.60;;;0.50;1.00;;;;;;10438342;28;20198;-78
2024/01/10 04:05:33;;;;;;;20.27;11.27;;;0.40;1.00;;;;;;10399177;28;20518;-78
2024/01/10 04:10:55;;;;;;;18.27;11.57;;;0.50;1.00;;;;;;10399351;28;20236;-79
2024/01/10 04:16:16;;;;;;;15.17;9.33;;;0.50;93.90;;;;;;10382888;28;20204;-83
2024/01/10 04:21:38;;;;;;;16.03;10.07;;;0.50;92.70;;;;;;10382450;28;20210;-85
2024/01/10 04:26:59;;;;;;;17.13;9.20;;;0.50;1.00;;;;;;10396809;28;20402;-85
2024/01/10 04:32:20;;;;;;;21.53;12.07;;;0.60;1.00;;;;;;10368699;28;20379;-84
2024/01/10 04:37:41;;;;;;;16.57;10.63;;;0.50;1.00;;;;;;10400746;28;20210;-81
2024/01/10 04:43:03;;;;;;;13.63;8.87;;;0.50;1.00;;;;;;10409099;28;20224;-84
2024/01/10 04:48:24;;;;;;;13.73;8.90;;;0.60;99.90;;;;;;10408455;28;20266;-83
2024/01/10 04:53:46;;;;;;;18.50;9.27;;;0.50;1.00;;;;;;10421904;28;20233;-83
2024/01/10 04:59:07;;;;;;;15.23;9.17;;;0.50;99.90;;;;;;10435858;28;20479;-84
2024/01/10 05:04:28;;;;;;;15.63;9.53;;;0.50;1.00;;;;;;10394941;28;20219;-85
2024/01/10 05:09:49;;;;;;;21.77;12.60;;;0.60;99.90;;;;;;10418599;28;20545;-84
2024/01/10 05:15:11;;;;;;;19.17;12.07;;;0.60;1.00;;;;;;10409021;28;20203;-85
2024/01/10 05:20:32;;;;;;;20.13;12.67;;;0.60;99.90;;;;;;10394574;28;20192;-85
2024/01/10 05:25:54;;;;;;;20.97;10.97;;;0.50;1.00;;;;;;10408303;28;20395;-86
2024/01/10 05:31:16;;;;;;;21.27;11.93;;;0.50;99.90;;;;;;10380836;28;20200;-81
2024/01/10 05:36:37;;;;;;;21.97;12.10;;;0.50;99.90;;;;;;10393879;28;20202;-80
2024/01/10 05:41:58;;;;;;;17.73;10.70;;;0.50;1.00;;;;;;10430097;28;20203;-81
2024/01/10 05:47:19;;;;;;;22.23;12.67;;;0.50;1.00;;;;;;10387755;28;20274;-80
2024/01/10 05:52:43;;;;;;;18.83;11.77;;;0.50;51.60;;;;;;10418279;28;20550;-79
2024/01/10 05:58:05;;;;;;;19.47;11.30;;;0.40;1.00;;;;;;10395919;28;20196;-81
2024/01/10 06:03:26;;;;;;;19.60;11.93;;;0.50;99.90;;;;;;10418136;28;20222;-83
2024/01/10 06:08:47;;;;;;;17.20;11.37;;;0.60;99.90;;;;;;10403816;28;20230;-80
2024/01/10 06:14:08;;;;;;;12.80;8.73;;;0.50;99.90;;;;;;10406118;28;20209;-80
2024/01/10 06:19:33;;;;;;;17.03;10.77;;;0.50;1.00;;;;;;10386213;28;20287;-80
2024/01/10 06:24:54;;;;;;;19.53;12.37;;;0.60;99.90;;;;;;10400017;28;20592;-82
2024/01/10 06:30:16;;;;;;;19.70;13.23;;;0.70;99.90;;;;;;10399821;28;20198;-82
2024/01/10 06:35:37;;;;;;;24.10;11.70;;;0.70;1.00;;;;;;10399431;28;20489;-82
2024/01/10 06:41:00;;;;;;;16.87;10.93;;;0.70;1.00;;;;;;10424546;28;20217;-81
2024/01/10 06:46:22;;;;;;;19.17;10.47;;;0.60;1.00;;;;;;10407407;28;20235;-81
2024/01/10 06:51:45;;;;;;;20.80;13.47;;;0.50;99.90;;;;;;10407400;28;20202;-83
2024/01/10 06:57:07;;;;;;;15.97;10.87;;;0.60;1.00;;;;;;10439464;28;20489;-84
2024/01/10 07:02:32;;;;;;;15.90;9.77;;;0.60;99.90;;;;;;10371367;28;20286;-81
2024/01/10 07:07:53;;;;;;;13.60;9.27;;;0.60;1.00;;;;;;10386964;28;20231;-84
2024/01/10 07:13:14;;;;;;;13.57;8.00;;;0.60;99.90;;;;;;10414590;28;20210;-82
2024/01/10 07:18:36;;;;;;;19.67;9.97;;;0.50;1.00;;;;;;10389348;28;20361;-81
2024/01/10 07:23:57;;;;;;;19.53;12.10;;;0.50;1.00;;;;;;10384080;28;20413;-82
2024/01/10 07:29:19;;;;;;;18.40;9.87;;;0.50;1.00;;;;;;10397911;28;20194;-81
2024/01/10 07:34:40;;;;;;;15.43;6.30;;;0.50;99.90;;;;;;10397118;28;20203;-84
2024/01/10 07:40:03;;;;;;;13.47;8.73;;;0.50;99.90;;;;;;10404692;28;20191;-82
2024/01/10 07:45:25;;;;;;;11.43;7.57;;;0.50;1.00;;;;;;10435936;28;20233;-83
2024/01/10 07:50:46;;;;;;;11.07;7.67;;;0.60;1.00;;;;;;10409430;28;20416;-82
2024/01/10 07:56:07;;;;;;;13.83;9.03;;;0.60;38.60;;;;;;10438276;28;20229;-81
2024/01/10 08:01:28;;;;;;;13.00;8.27;;;0.60;99.90;;;;;;10435915;28;20194;-82
2024/01/10 08:06:49;;;;;;;17.03;11.43;;;0.70;62.40;;;;;;10422891;28;20226;-83
2024/01/10 08:12:11;;;;;;;17.23;10.57;;;0.70;1.00;;;;;;10371931;28;20207;-84
2024/01/10 08:17:33;;;;;;;22.30;12.20;;;0.80;99.90;;;;;;10382084;28;20211;-87
2024/01/10 08:22:54;;;;;;;19.00;12.30;;;0.80;1.00;;;;;;10396009;28;20442;-84
2024/01/10 08:28:16;;;;;;;21.60;13.80;;;0.70;13.20;;;;;;10380827;28;21477;-84
2024/01/10 08:33:37;;;;;;;19.23;13.60;;;0.80;1.00;;;;;;10412132;28;20229;-80
2024/01/10 08:38:58;;;;;;;25.93;15.13;;;0.80;28.80;;;;;;10414153;28;20202;-79
2024/01/10 08:44:20;;;;;;;24.13;13.33;;;0.90;1.00;;;;;;10415413;28;20417;-78
2024/01/10 08:49:42;;;;;;;20.47;13.03;;;0.90;1.00;;;;;;10413581;28;20494;-78
2024/01/10 08:55:07;;;;;;;17.83;10.63;;;0.90;99.90;;;;;;10429436;28;20243;-79
2024/01/10 09:00:30;;;;;;;14.77;10.77;;;1.10;1.00;;;;;;10402078;28;20226;-77
2024/01/10 09:05:52;;;;;;;22.03;13.33;;;1.00;1.00;;;;;;10416509;28;20235;-84
2024/01/10 09:11:17;;;;;;;18.57;12.13;;;1.10;99.90;;;;;;10442112;28;20280;-82
2024/01/10 09:16:38;;;;;;;34.23;15.63;;;1.10;99.90;;;;;;10389819;28;20195;-77
2024/01/10 09:21:59;;;;;;;22.63;15.10;;;1.20;1.00;;;;;;10403596;28;20192;-78
2024/01/10 09:27:22;;;;;;;37.53;21.90;;;1.20;1.00;;;;;;10477761;28;20701;-79
2024/01/10 09:32:44;;;;;;;40.40;20.63;;;1.30;1.00;;;;;;10410158;28;20212;-78
2024/01/10 09:38:06;;;;;;;28.47;15.67;;;1.30;1.00;;;;;;10400303;28;20309;-78
2024/01/10 09:43:29;;;;;;;39.83;18.90;;;1.30;1.00;;;;;;10399375;28;20208;-78
2024/01/10 09:48:51;;;;;;;28.30;13.93;;;1.30;1.00;;;;;;10383686;28;20213;-78
2024/01/10 09:54:19;;;;;;;25.73;12.13;;;1.30;99.90;;;;;;10399262;28;20246;-78
2024/01/10 09:59:43;;;;;;;22.83;12.97;;;1.30;99.90;;;;;;10400419;28;20480;-80
2024/01/10 10:05:18;;;;;;;14.40;9.33;;;1.20;1.00;;;;;;10401462;28;20390;-82
2024/01/10 10:10:42;;;;;;;29.33;16.43;;;1.20;1.00;;;;;;10402385;28;20213;-79
2024/01/10 10:16:05;;;;;;;19.00;11.13;;;1.20;99.90;;;;;;10411441;28;20267;-79
2024/01/10 10:21:27;;;;;;;16.57;10.97;;;1.20;99.90;;;;;;10397641;28;20200;-79
2024/01/10 10:26:48;;;;;;;20.33;13.10;;;1.20;1.00;;;;;;10416409;28;20606;-79
2024/01/10 10:32:09;;;;;;;16.97;11.10;;;1.10;1.00;;;;;;10387109;28;20270;-79
2024/01/10 10:37:31;;;;;;;13.70;9.80;;;1.20;1.00;;;;;;10388473;28;20432;-78
2024/01/10 10:42:58;;;;;;;15.73;9.20;;;1.30;99.90;;;;;;10384149;28;20538;-80
2024/01/10 10:48:20;;;;;;;13.80;8.83;;;1.30;1.00;;;;;;10373806;28;20225;-79
2024/01/10 10:53:46;;;;;;;13.97;8.73;;;1.30;99.90;;;;;;10379635;28;20246;-80
2024/01/10 10:59:09;;;;;;;15.07;9.93;;;1.30;99.90;;;;;;10385430;28;20192;-78
2024/01/10 11:04:32;;;;;;;16.70;9.33;;;1.30;68.10;;;;;;10390103;28;20240;-80
2024/01/10 11:09:54;;;;;;;19.00;10.63;;;1.30;1.00;;;;;;10391968;28;20199;-79
2024/01/10 11:15:46;;;;;;;15.53;10.60;;;1.30;3.80;;;;;;10403370;28;20488;-81
2024/01/10 11:21:32;;;;;;;20.27;12.47;;;1.20;1.00;;;;;;10409017;28;20199;-75
2024/01/10 11:27:13;;;;;;;21.10;12.37;;;1.20;1.00;;;;;;10412164;28;20544;-80
2024/01/10 11:32:35;;;;;;;22.80;13.47;;;1.20;99.90;;;;;;10417061;28;20234;-81
2024/01/10 12:02:55;;;;;;;19.87;13.70;;;1.20;99.90;;;;;;10574237;27;20558;-77
2024/01/10 12:08:17;;;;;;;20.37;13.13;;;1.20;1.00;;;;;;10571570;28;20229;-78
2024/01/10 12:13:43;;;;;;;17.17;11.10;;;1.30;1.00;;;;;;10543587;28;20208;-78
2024/01/10 12:19:05;;;;;;;18.60;10.53;;;1.30;1.00;;;;;;10584314;27;20232;-76
2024/01/10 12:24:30;;;;;;;13.47;9.67;;;1.30;1.00;;;;;;10548862;28;20232;-78
2024/01/10 12:29:52;;;;;;;27.27;16.43;;;1.20;1.00;;;;;;10540308;28;20205;-76
2024/01/10 12:35:13;;;;;;;14.87;11.03;;;1.20;1.00;;;;;;10544454;28;20398;-76
2024/01/10 12:40:35;;;;;;;18.47;10.53;;;1.20;1.00;;;;;;10569323;28;20222;-77
2024/01/10 12:46:12;;;;;;;14.03;9.53;;;1.20;1.00;;;;;;10563984;28;20279;-75
2024/01/10 12:51:38;;;;;;;13.57;8.97;;;1.20;1.00;;;;;;10566127;28;20205;-75
2024/01/10 12:56:59;;;;;;;13.27;8.37;;;1.30;99.90;;;;;;10565606;28;20493;-78
2024/01/10 13:02:21;;;;;;;12.20;8.53;;;1.20;99.90;;;;;;10555514;28;20246;-79
2024/01/10 13:07:43;;;;;;;16.93;10.90;;;1.20;99.90;;;;;;10556805;28;20216;-77
2024/01/10 13:13:04;;;;;;;16.90;9.67;;;1.10;1.00;;;;;;10534755;28;20224;-77
2024/01/10 13:18:28;;;;;;;14.77;9.77;;;1.10;1.00;;;;;;10540827;28;20288;-79
2024/01/10 13:23:51;;;;;;;22.43;13.23;;;1.20;1.00;;;;;;10535042;28;20232;-78
2024/01/10 13:29:13;;;;;;;12.83;9.70;;;1.20;1.00;;;;;;10518393;28;20207;-79
2024/01/10 13:34:35;;;;;;;16.10;10.93;;;1.20;1.00;;;;;;10467861;27;20477;-79
2024/01/10 13:39:57;;;;;;;14.40;10.20;;;1.10;1.00;;;;;;10450233;28;20536;-77
2024/01/10 13:45:18;;;;;;;22.90;14.13;;;1.10;1.00;;;;;;10437421;28;20190;-83
2024/01/10 13:50:39;;;;;;;21.50;14.40;;;1.10;99.90;;;;;;10444380;28;20238;-77
2024/01/10 13:56:00;;;;;;;18.67;12.77;;;1.20;99.10;;;;;;10441372;28;20203;-78
2024/01/10 14:01:22;;;;;;;22.13;13.27;;;1.10;99.90;;;;;;10435062;28;20324;-75
2024/01/10 14:06:43;;;;;;;22.20;13.63;;;1.00;10.70;;;;;;10435230;28;20480;-79
2024/01/10 14:12:05;;;;;;;22.87;13.50;;;1.10;1.00;;;;;;10444285;28;20268;-75
2024/01/10 14:17:27;;;;;;;23.63;14.87;;;1.00;1.00;;;;;;10443505;28;20222;-77
2024/01/10 14:22:50;;;;;;;20.63;13.90;;;1.00;1.00;;;;;;10455539;28;20238;-81
2024/01/10 14:28:11;;;;;;;17.13;11.43;;;1.10;99.90;;;;;;10454884;28;20320;-81
2024/01/10 14:33:32;;;;;;;20.20;13.10;;;1.00;1.00;;;;;;10439198;28;20238;-83
2024/01/10 14:38:57;;;;;;;18.30;11.77;;;1.00;1.00;;;;;;10435093;28;20222;-80
2024/01/10 14:44:18;;;;;;;18.83;11.77;;;1.00;1.00;;;;;;10449614;28;20203;-76
2024/01/10 14:49:41;;;;;;;17.73;11.07;;;1.00;55.60;;;;;;10430472;28;20199;-77
2024/01/10 14:55:04;;;;;;;18.87;10.70;;;1.00;1.00;;;;;;10454201;28;20232;-77
2024/01/10 15:00:26;;;;;;;26.10;13.93;;;0.90;55.00;;;;;;10419721;28;20238;-82
2024/01/10 15:05:48;;;;;;;21.70;13.60;;;0.80;99.90;;;;;;10445374;28;20195;-79
2024/01/10 15:11:10;;;;;;;18.77;11.00;;;0.80;1.00;;;;;;10439221;28;20206;-83
2024/01/10 15:16:32;;;;;;;16.57;11.30;;;0.80;1.00;;;;;;10416451;28;20200;-84
2024/01/10 15:21:53;;;;;;;18.63;12.03;;;0.80;1.00;;;;;;10431549;28;20600;-82
2024/01/10 15:27:15;;;;;;;25.50;14.27;;;0.90;1.00;;;;;;10432233;28;20512;-81
2024/01/10 15:32:36;;;;;;;21.17;12.53;;;0.90;99.90;;;;;;10439123;28;20236;-84
2024/01/10 15:37:58;;;;;;;18.93;12.17;;;0.90;1.00;;;;;;10412340;28;20213;-78
2024/01/10 15:43:19;;;;;;;28.90;15.33;;;0.90;99.90;;;;;;10440234;28;20504;-78
2024/01/10 15:48:40;;;;;;;26.90;14.60;;;0.80;99.90;;;;;;10423409;28;20501;-87
2024/01/10 15:54:02;;;;;;;20.27;12.30;;;0.80;99.90;;;;;;10440180;28;20233;-79
2024/01/10 15:59:23;;;;;;;24.80;14.30;;;0.80;1.00;;;;;;10432578;28;20249;-79
2024/01/10 16:04:44;;;;;;;22.63;13.30;;;0.80;1.00;;;;;;10438186;28;20279;-83
2024/01/10 16:10:08;;;;;;;18.30;10.50;;;0.80;99.90;;;;;;10430400;28;20232;-79
2024/01/10 16:15:29;;;;;;;18.63;11.90;;;0.80;99.90;;;;;;10392325;28;20207;-79
2024/01/10 16:20:51;;;;;;;28.80;13.53;;;0.80;1.00;;;;;;10395192;28;20454;-79
2024/01/10 16:26:13;;;;;;;19.57;12.43;;;0.80;1.00;;;;;;10407382;28;20203;-79
2024/01/10 16:31:34;;;;;;;23.40;11.53;;;0.80;1.00;;;;;;10402698;28;20510;-78
2024/01/10 16:36:56;;;;;;;17.73;10.50;;;0.70;99.90;;;;;;10405636;28;20210;-78
2024/01/10 16:42:17;;;;;;;16.00;9.30;;;0.70;99.90;;;;;;10403923;28;20548;-79
2024/01/10 16:47:38;;;;;;;14.70;9.17;;;0.70;1.00;;;;;;10440026;28;20190;-79
2024/01/10 16:53:00;;;;;;;14.43;9.07;;;0.70;99.90;;;;;;10373689;28;20198;-78
2024/01/10 16:58:22;;;;;;;16.60;9.03;;;0.70;1.00;;;;;;10402426;28;20311;-80
2024/01/10 17:03:43;;;;;;;19.00;9.90;;;0.80;1.00;;;;;;10406617;28;20278;-79
2024/01/10 17:09:04;;;;;;;18.20;9.70;;;0.80;1.00;;;;;;10434229;28;20508;-78
2024/01/10 17:14:26;;;;;;;25.23;11.63;;;0.90;99.90;;;;;;10441182;28;20204;-86
2024/01/10 17:19:47;;;;;;;17.73;9.33;;;0.90;1.00;;;;;;10427512;28;20528;-82
2024/01/10 17:25:09;;;;;;;15.33;8.73;;;0.80;1.00;;;;;;10427821;28;20187;-84
2024/01/10 17:30:32;;;;;;;11.07;7.03;;;0.80;1.00;;;;;;10433971;28;20195;-83
2024/01/10 17:35:53;;;;;;;11.13;7.57;;;0.80;99.90;;;;;;10412615;28;20210;-82
2024/01/10 17:41:18;;;;;;;15.53;8.07;;;0.70;1.00;;;;;;10426555;28;20296;-80
2024/01/10 17:46:40;;;;;;;12.47;7.17;;;0.70;99.90;;;;;;10440638;28;20194;-84
2024/01/10 17:52:01;;;;;;;16.70;8.83;;;0.70;1.00;;;;;;10426328;28;20206;-87
2024/01/10 17:57:26;;;;;;;17.00;10.10;;;0.70;1.00;;;;;;10411870;28;20259;-85
2024/01/10 18:02:47;;;;;;;16.70;10.07;;;0.70;99.90;;;;;;10424826;28;20247;-83
2024/01/10 18:08:09;;;;;;;19.50;10.60;;;0.70;1.00;;;;;;10411848;28;20206;-85
2024/01/10 18:13:30;;;;;;;15.90;9.23;;;0.70;20.00;;;;;;10425110;28;20393;-79
2024/01/10 18:18:51;;;;;;;15.73;9.33;;;0.80;99.90;;;;;;10425169;28;20204;-80
2024/01/10 18:24:13;;;;;;;11.93;7.87;;;0.70;1.00;;;;;;10438852;28;20203;-87
2024/01/10 18:29:35;;;;;;;12.83;8.53;;;0.70;99.90;;;;;;10438798;28;20207;-81
2024/01/10 18:34:56;;;;;;;17.27;10.63;;;0.60;1.00;;;;;;10424896;28;20201;-79
2024/01/10 18:40:17;;;;;;;15.13;9.33;;;0.60;99.90;;;;;;10397079;28;20280;-79
2024/01/10 18:45:39;;;;;;;14.33;9.73;;;0.70;1.00;;;;;;10419950;28;20194;-78
2024/01/10 18:51:01;;;;;;;15.90;9.97;;;0.70;99.90;;;;;;10407465;28;20193;-86
2024/01/10 18:56:22;;;;;;;15.60;10.50;;;0.60;99.90;;;;;;10423804;28;20224;-79
2024/01/10 19:01:46;;;;;;;14.00;10.00;;;0.60;1.00;;;;;;10436079;28;20559;-79
2024/01/10 19:07:08;;;;;;;14.73;9.23;;;0.60;1.00;;;;;;10409764;28;20245;-79
2024/01/10 19:12:29;;;;;;;13.63;9.23;;;0.60;1.00;;;;;;10436688;28;20227;-85
2024/01/10 19:17:51;;;;;;;14.23;9.43;;;0.70;1.00;;;;;;10424045;28;20194;-80
2024/01/10 19:23:12;;;;;;;15.63;10.47;;;0.70;99.90;;;;;;10422594;28;20260;-87
2024/01/10 19:28:33;;;;;;;11.43;7.33;;;0.60;1.00;;;;;;10408680;28;20271;-83
2024/01/10 19:33:56;;;;;;;13.07;9.30;;;0.80;1.00;;;;;;10422232;28;20203;-79
2024/01/10 19:39:18;;;;;;;15.30;9.23;;;0.70;1.00;;;;;;10428415;28;20228;-80
2024/01/10 19:44:40;;;;;;;14.67;9.53;;;0.80;1.00;;;;;;10433495;28;20202;-84
2024/01/10 19:50:02;;;;;;;12.80;9.10;;;0.70;1.00;;;;;;10401612;28;20263;-79
2024/01/10 19:55:24;;;;;;;13.03;8.83;;;0.80;1.00;;;;;;10408784;28;20209;-82
2024/01/10 20:00:45;;;;;;;13.80;9.43;;;0.80;1.00;;;;;;10420370;28;20281;-88
2024/01/10 20:06:08;;;;;;;13.63;9.43;;;0.70;1.00;;;;;;10429070;28;20198;-79
2024/01/10 20:11:30;;;;;;;12.63;9.30;;;0.80;1.00;;;;;;10397223;28;20195;-83
2024/01/10 20:16:51;;;;;;;17.23;10.43;;;0.80;1.00;;;;;;10394191;28;20278;-84
2024/01/10 20:22:12;;;;;;;16.33;11.17;;;0.70;1.00;;;;;;10398069;28;20463;-79
2024/01/10 20:27:34;;;;;;;17.67;11.53;;;0.80;1.00;;;;;;10439100;28;20265;-81
2024/01/10 20:32:57;;;;;;;20.33;11.67;;;0.80;77.10;;;;;;10429942;28;20255;-81
2024/01/10 20:38:18;;;;;;;17.40;12.03;;;0.80;1.00;;;;;;10437911;28;20585;-79
2024/01/10 20:43:40;;;;;;;18.77;12.00;;;0.80;1.00;;;;;;10428701;28;20223;-82
2024/01/10 20:49:01;;;;;;;19.07;12.70;;;0.90;59.70;;;;;;10442812;28;20191;-79
2024/01/10 20:54:22;;;;;;;20.87;13.57;;;0.90;1.00;;;;;;10442908;28;20198;-80
2024/01/10 20:59:47;;;;;;;21.80;14.70;;;0.80;1.00;;;;;;10394107;28;20242;-86
2024/01/10 21:05:09;;;;;;;18.07;11.90;;;0.80;20.70;;;;;;10387159;28;20266;-80
2024/01/10 21:10:31;;;;;;;17.53;12.77;;;0.90;99.90;;;;;;10400713;28;20504;-79
2024/01/10 21:15:52;;;;;;;19.70;13.07;;;0.90;99.90;;;;;;10387025;28;20231;-79
2024/01/10 21:21:14;;;;;;;20.10;12.57;;;0.90;99.90;;;;;;10400195;28;20495;-79
2024/01/10 21:26:35;;;;;;;19.23;12.10;;;0.90;1.00;;;;;;10418184;28;20268;-79
2024/01/10 21:31:57;;;;;;;15.80;10.87;;;0.90;1.00;;;;;;10418219;28;20382;-80
2024/01/10 21:37:19;;;;;;;16.20;9.77;;;1.00;99.90;;;;;;10427382;28;20198;-79
2024/01/10 21:42:40;;;;;;;11.10;8.00;;;0.90;1.00;;;;;;10426622;28;20231;-81
2024/01/10 21:48:02;;;;;;;11.90;8.17;;;0.90;99.90;;;;;;10412738;28;20499;-79
2024/01/10 21:53:23;;;;;;;11.33;7.50;;;1.00;1.00;;;;;;10426776;28;20531;-81
2024/01/10 21:58:44;;;;;;;11.47;8.50;;;0.90;1.00;;;;;;10424729;28;20266;-79
2024/01/10 22:04:05;;;;;;;17.47;10.50;;;1.00;1.00;;;;;;10428298;28;20224;-79
2024/01/10 22:09:27;;;;;;;13.70;9.40;;;1.00;1.00;;;;;;10385203;28;20199;-85
2024/01/10 22:14:48;;;;;;;14.30;8.70;;;1.00;1.00;;;;;;10399192;28;20202;-81
2024/01/10 22:20:11;;;;;;;12.50;8.43;;;1.10;1.00;;;;;;10370536;28;20232;-79
2024/01/10 22:25:33;;;;;;;12.00;8.17;;;1.20;99.90;;;;;;10402928;28;20190;-81
2024/01/10 22:30:54;;;;;;;11.73;8.13;;;1.20;99.90;;;;;;10414435;28;20208;-86
2024/01/10 22:36:15;;;;;;;14.77;8.87;;;1.20;1.00;;;;;;10397659;28;20209;-84
2024/01/10 22:41:37;;;;;;;12.03;8.57;;;1.20;99.90;;;;;;10383689;28;20270;-79
2024/01/10 22:46:58;;;;;;;11.80;7.60;;;1.10;1.00;;;;;;10390744;28;20414;-84
2024/01/10 22:52:20;;;;;;;13.40;8.03;;;1.20;1.00;;;;;;10438160;28;20195;-80
2024/01/10 22:57:43;;;;;;;13.00;7.97;;;1.10;1.00;;;;;;10422186;28;20206;-79
2024/01/10 23:03:06;;;;;;;12.70;7.47;;;1.10;1.00;;;;;;10423555;28;20280;-79
2024/01/10 23:08:29;;;;;;;10.77;7.30;;;1.20;1.00;;;;;;10438373;28;20261;-79
2024/01/10 23:13:50;;;;;;;10.47;6.67;;;1.10;1.00;;;;;;10436934;28;20229;-79
2024/01/10 23:19:11;;;;;;;10.90;6.47;;;1.10;1.00;;;;;;10436863;28;20218;-80
2024/01/10 23:24:33;;;;;;;11.53;7.07;;;1.10;1.00;;;;;;10437043;28;20196;-79
2024/01/10 23:29:55;;;;;;;10.70;6.60;;;1.10;1.00;;;;;;10410954;28;20258;-82
2024/01/10 23:35:18;;;;;;;11.67;6.77;;;1.20;1.00;;;;;;10392889;28;20278;-79
2024/01/10 23:40:42;;;;;;;16.67;7.93;;;1.20;1.00;;;;;;10422299;28;20290;-80
2024/01/10 23:46:03;;;;;;;12.23;7.93;;;1.20;1.00;;;;;;10435969;28;20382;-79
2024/01/10 23:51:25;;;;;;;13.93;8.27;;;1.20;1.00;;;;;;10408465;28;20197;-79
2024/01/10 23:56:46;;;;;;;11.03;7.00;;;1.30;1.00;;;;;;10434860;28;20225;-84
